Okoboji, Iowa
Current Conditions -  °F | °C
As of 5:53 PM on Wednesday 22 Oct 2014 (Local Time) from KSPW Reporting Station
Clear Clear  
Wind Chill: 65°   Ceiling: Unl
Heat Index: 65°   Visibility: 10mi
Dew Point: 48°   Wind: 16mph
Humidity: 54%   Direction: 150°SSE
Pressure: 29.98"   Gusts: NA
Location:  43.39°N, 95.15°W
Report Text: KSPW 222253Z AUTO 15014KT 10SM CLR 18/09 A2998 RMK AO2 PK WND 15027/2203 SLP154 T01830089 TSNO
Loading
Personal Weather Stations






























Interactive Weather Map
Tropical Storm Tracking
New forecast layout! Learn more

10-Day Weather Forecast

Advertisements
Track Severe Weather on mobile